Decoded Metar for LFJL (METZ in FRANCE) (IATA:ETZ) | Meteo·Mobile Aviation Weather
aviador You're here:

LFJL Decoded Metar

METZ in FRANCE
Report Time2018-12-16 17:30:00
UTC Time2018-12-16 17:45:50
Flight Rules mvfr MVFR
Wind150° at 10 kt
W.Decomp.*RWY 22: 3.4 kt HW 9.4 kt LCW
W.Rank150° ranks 9
Current wind is above 150° avg. (8.1)
Visibility7000 m
Phenomena:Mist
Clouds:Overcast 012 Hf
Ceiling1,200 ft
Temp04°C (ISA -9)
Dew Point04°C (100% RH)
AAT-0.9°C
QNH1013 hPa
Density Alt-141 ft
Elevation866 ft
Report Wrong Elevation
Raw Report
LFJL 161730Z AUTO 15010KT 7000 OVC012/// 04/04 Q1013 BECMG 3000 BR
OVC004=

Extra information for LFJL:More info

Metar Taf Metar & Taf Last 4 Metars F.Rules Stats Wind Profile Meteogram Temp Stats Airport Information Weather charts Add Link Nearby VenuesMetar ALERT Operation Metar Decoded Social comments